Latest Weather Observations for Mount Moornapa

IDV60801

Issued at 9:31 pm EST Saturday 4 July 2015 (issued every 30 minutes, with the page automatically refreshed every 10 minutes)

About weather observations | Map of weather stations | Latest weather observations for VIC | Other Formats
Station Details ID: 085296 Name: MOUNT MOORNAPA Lat: -37.75 Lon: 147.14 Height: 480.0 m
Data from the previous 72 hours. | See also: Recent months at Mount Moornapa
Date/Time
EST
Temp
°C
App
Temp
°C
Dew
Point
Rel
Hum
%
Delta-T
°C
Wind Press
QNH
hPa
Press
MSL
hPa
Rain
since 9 am
mm
Dir
 
Spd
km/h
Gust
km/h
Spd
kts
Gust
kts
04/09:30pm 8.1 4.4 4.3 77 1.7 N 13 17 7 9 - - 0.0
04/09:00pm 8.7 5.8 4.7 76 1.8 NNW 9 15 5 8 - - 0.0
04/08:30pm 8.9 6.4 4.9 76 1.8 NW 7 9 4 5 - - 0.0
04/08:00pm 9.1 6.7 5.1 76 1.8 NW 7 13 4 7 - - 0.0
04/07:30pm 9.2 6.8 5.2 76 1.9 NW 7 15 4 8 - - 0.0
04/07:00pm 9.2 7.0 5.2 76 1.9 NW 6 13 3 7 - - 0.0
04/06:30pm 9.1 6.9 5.3 77 1.8 NNW 6 9 3 5 - - 0.0
04/06:00pm 9.0 6.8 5.4 78 1.7 NW 6 9 3 5 - - 0.0
04/05:30pm 9.1 6.7 5.3 77 1.8 WNW 7 17 4 9 - - 0.0
04/05:00pm 9.1 6.8 5.5 78 1.7 WNW 7 13 4 7 - - 0.0
04/04:30pm 9.5 7.2 5.5 76 1.9 W 7 13 4 7 - - 0.0
04/04:00pm 9.9 7.2 5.5 74 2.1 W 9 19 5 10 - - 0.0
04/03:30pm 9.9 7.2 5.5 74 2.1 W 9 15 5 8 - - 0.0
04/03:00pm 9.8 7.0 5.2 73 2.1 W 9 15 5 8 - - 0.0
04/02:30pm 10.3 7.6 5.5 72 2.3 WNW 9 19 5 10 - - 0.0
04/02:00pm 10.3 8.0 5.7 73 2.2 WNW 7 17 4 9 - - 0.0
04/01:30pm 10.1 7.4 5.5 73 2.2 WNW 9 20 5 11 - - 0.0
04/01:00pm 9.8 7.4 5.4 74 2.1 WNW 7 15 4 8 - - 0.0
04/12:30pm 9.6 6.8 5.0 73 2.1 W 9 17 5 9 - - 0.0
04/12:00pm 9.1 6.2 4.9 75 1.9 NNW 9 13 5 7 - - 0.0
04/11:30am 8.4 5.1 4.8 78 1.6 NNW 11 15 6 8 - - 0.0
04/11:00am 7.9 3.9 3.0 71 2.1 NNW 13 19 7 10 - - 0.0
04/10:30am 7.7 4.5 3.0 72 2.0 NNW 9 13 5 7 - - 0.0
04/10:00am 7.3 3.3 2.8 73 1.9 NNW 13 20 7 11 - - 0.0
04/09:30am 5.9 0.6 1.8 75 1.7 N 19 24 10 13 - - 0.0
04/09:00am 5.6 0.6 1.2 73 1.8 N 17 22 9 12 - - 0.0
04/08:30am 5.9 1.6 1.2 72 1.9 NNW 13 19 7 10 - - 0.0
04/08:00am 4.7 -0.5 0.3 73 1.7 N 17 20 9 11 - - 0.0
04/07:30am 4.3 -0.9 -0.1 73 1.7 N 17 20 9 11 - - 0.0
04/07:00am 4.2 -1.5 -0.4 72 1.8 N 19 22 10 12 - - 0.0
04/06:30am 3.8 -1.5 -0.4 74 1.6 N 17 24 9 13 - - 0.0
04/06:00am 3.4 -2.2 -0.2 77 1.4 N 19 24 10 13 - - 0.0
04/05:30am 3.0 -2.3 -0.3 79 1.3 N 17 22 9 12 - - 0.0
04/05:00am 4.3 -0.5 -0.1 73 1.7 NNW 15 20 8 11 - - 0.0
04/04:30am 3.3 -1.9 0.2 80 1.2 N 17 22 9 12 - - 0.0
04/04:00am 3.5 -1.3 0.0 78 1.4 NNW 15 24 8 13 - - 0.0
04/03:30am 3.5 -0.6 -0.3 76 1.5 N 11 17 6 9 - - 0.0
04/03:00am 3.3 -0.4 -0.3 77 1.4 N 9 13 5 7 - - 0.0
04/02:30am 3.3 -0.4 0.0 79 1.3 N 9 13 5 7 - - 0.0
04/02:00am 3.8 0.1 0.0 76 1.5 N 9 13 5 7 - - 0.0
04/01:30am 3.5 -0.1 0.9 83 1.0 N 9 13 5 7 - - 0.0
04/01:00am 2.8 -0.7 1.5 91 0.5 N 9 11 5 6 - - 0.0
04/12:30am 3.4 0.0 2.1 91 0.5 N 9 9 5 5 - - 0.0
04/12:00am 3.2 0.4 2.2 93 0.4 NNE 6 7 3 4 - - 0.0
 
Date/Time
EST
Temp
°C
App
Temp
°C
Dew
Point
Rel
Hum
%
Delta-T
°C
Wind Press
QNH
hPa
Press
MSL
hPa
Rain
since 9 am
mm
Dir
 
Spd
km/h
Gust
km/h
Spd
kts
Gust
kts
03/11:30pm 3.5 1.1 2.3 92 0.5 N 4 6 2 3 - - 0.0
03/11:00pm 4.5 2.1 2.0 84 1.0 NNW 4 4 2 2 - - 0.0
03/10:30pm 3.6 0.9 2.4 92 0.5 N 6 7 3 4 - - 0.0
03/10:00pm 4.2 2.3 2.7 90 0.6 NNW 2 4 1 2 - - 0.0
03/09:30pm 4.3 2.7 2.3 87 0.8 CALM 0 4 0 2 - - 0.0
03/09:00pm 4.4 2.8 2.6 88 0.7 CALM 0 0 0 0 - - 0.0
03/08:30pm 4.4 2.8 2.6 88 0.7 CALM 0 0 0 0 - - 0.0
03/08:00pm 4.6 3.0 2.6 87 0.8 CALM 0 0 0 0 - - 0.0
03/07:30pm 4.6 2.9 2.1 84 1.0 CALM 0 2 0 1 - - 0.0
03/07:00pm 4.7 3.0 2.1 83 1.1 CALM 0 0 0 0 - - 0.0
03/06:30pm 4.9 3.3 2.3 83 1.1 CALM 0 2 0 1 - - 0.0
03/06:00pm 5.2 2.4 1.9 79 1.4 W 6 13 3 7 - - 0.0
03/05:30pm 4.5 1.7 2.0 84 1.0 WSW 6 9 3 5 - - 0.0
03/05:00pm 4.9 2.8 1.9 81 1.2 SSW 2 7 1 4 - - 0.0
03/04:30pm 5.7 3.3 2.4 79 1.4 SW 4 6 2 3 - - 0.0
03/04:00pm 6.2 3.9 2.7 78 1.5 S 4 11 2 6 - - 0.0
03/03:30pm 6.5 4.9 2.2 74 1.8 CALM 0 4 0 2 - - 0.0
03/03:00pm 6.8 5.2 2.3 73 1.9 CALM 0 4 0 2 - - 0.0
03/02:30pm 6.7 4.6 1.6 70 2.1 SSW 2 6 1 3 - - 0.0
03/02:00pm 7.9 5.5 2.2 67 2.4 S 4 6 2 3 - - 0.0
03/01:30pm 6.9 5.0 2.6 74 1.8 SW 2 6 1 3 - - 0.0
03/01:00pm 6.6 3.5 1.5 70 2.1 WSW 7 13 4 7 - - 0.0
03/12:30pm 6.9 4.1 2.2 72 2.0 WSW 6 11 3 6 - - 0.0
03/12:00pm 7.2 4.8 2.3 71 2.1 WNW 4 6 2 3 - - 0.0
03/11:30am 7.2 5.8 3.8 79 1.5 CALM 0 6 0 3 - - 0.0
03/11:00am 6.3 4.0 2.9 79 1.5 NW 4 6 2 3 - - 0.0
03/10:30am 6.1 3.8 2.7 79 1.4 NW 4 7 2 4 - - 0.0
03/10:00am 5.3 2.6 2.8 84 1.1 NW 6 9 3 5 - - 0.0
03/09:30am 5.1 2.4 2.8 85 1.0 WNW 6 9 3 5 - - 0.0
03/09:00am 4.7 2.0 2.4 85 1.0 WNW 6 11 3 6 - - 5.0
03/08:30am 4.4 1.5 2.4 87 0.8 WNW 7 13 4 7 - - 5.0
03/08:00am 3.9 1.0 2.4 90 0.6 WNW 7 11 4 6 - - 5.0
03/07:30am 3.9 1.2 2.4 90 0.6 WNW 6 11 3 6 - - 5.0
03/07:00am 3.8 0.8 2.3 90 0.6 WNW 7 13 4 7 - - 5.0
03/06:30am 3.2 0.3 2.5 95 0.3 WNW 7 11 4 6 - - 5.0
03/06:00am 3.1 0.2 2.4 95 0.3 WNW 7 13 4 7 - - 5.0
03/05:30am 3.7 0.8 2.7 93 0.4 W 7 15 4 8 - - 5.0
03/05:00am 3.5 0.2 2.5 93 0.4 W 9 17 5 9 - - 5.0
03/04:30am 3.9 0.6 2.7 92 0.5 W 9 15 5 8 - - 5.0
03/04:00am 3.8 0.6 2.9 94 0.4 W 9 17 5 9 - - 5.0
03/03:30am 3.8 1.0 2.9 94 0.4 WSW 7 15 4 8 - - 5.0
03/03:00am 4.2 0.5 2.6 89 0.7 W 11 20 6 11 - - 4.8
03/02:30am 4.1 0.5 2.8 91 0.5 W 11 22 6 12 - - 4.8
03/02:00am 4.1 0.5 2.9 92 0.5 WSW 11 19 6 10 - - 4.8
03/01:30am 3.8 -0.2 2.9 94 0.4 W 13 24 7 13 - - 4.8
03/01:00am 4.1 0.5 3.2 94 0.4 W 11 19 6 10 - - 4.8
03/12:30am 4.1 0.5 3.2 94 0.4 WSW 11 20 6 11 - - 4.8
03/12:00am 3.8 -0.1 3.2 96 0.3 W 13 20 7 11 - - 4.8
 
Date/Time
EST
Temp
°C
App
Temp
°C
Dew
Point
Rel
Hum
%
Delta-T
°C
Wind Press
QNH
hPa
Press
MSL
hPa
Rain
since 9 am
mm
Dir
 
Spd
km/h
Gust
km/h
Spd
kts
Gust
kts
02/11:30pm 4.3 0.0 3.0 91 0.5 W 15 28 8 15 - - 4.8
02/11:00pm 4.3 -0.1 2.7 89 0.7 W 15 26 8 14 - - 4.6
02/10:30pm 4.4 0.8 2.8 89 0.7 W 11 20 6 11 - - 4.6
02/10:00pm 4.8 0.4 2.7 86 0.9 W 15 30 8 16 - - 4.6
02/09:30pm 4.6 1.0 2.9 89 0.7 W 11 22 6 12 - - 4.6
02/09:00pm 4.6 1.0 3.1 90 0.6 W 11 22 6 12 - - 4.6
02/08:30pm 4.7 0.6 2.4 85 1.0 W 13 26 7 14 - - 4.6
02/08:00pm 4.8 0.3 2.3 84 1.0 WSW 15 24 8 13 - - 4.6
02/07:30pm 4.8 0.4 2.5 85 1.0 W 15 26 8 14 - - 4.6
02/07:00pm 4.8 0.7 2.2 83 1.1 WSW 13 28 7 15 - - 4.6
02/06:30pm 4.5 -0.4 2.2 85 0.9 W 17 32 9 17 - - 4.6
02/06:00pm 4.4 0.3 2.3 86 0.9 W 13 30 7 16 - - 4.6
02/05:30pm 4.7 0.2 2.4 85 1.0 W 15 32 8 17 - - 4.6
02/05:00pm 4.5 -0.3 2.7 88 0.8 WSW 17 33 9 18 - - 4.6
02/04:30pm 4.7 0.3 2.9 88 0.8 W 15 30 8 16 - - 4.6
02/04:00pm 4.8 -0.3 3.1 89 0.7 WSW 19 39 10 21 - - 4.6
02/03:30pm 6.1 1.7 2.6 78 1.5 WSW 15 43 8 23 - - 4.6
02/03:00pm 5.7 2.6 3.5 86 0.9 WSW 9 22 5 12 - - 4.6
02/02:30pm 5.3 0.6 3.0 85 1.0 WSW 17 39 9 21 - - 4.6
02/02:00pm 5.8 1.5 3.5 85 1.0 WSW 15 32 8 17 - - 4.6
02/01:30pm 4.7 0.4 3.0 89 0.7 WSW 15 35 8 19 - - 4.6
02/01:00pm 4.8 -0.3 3.3 90 0.6 WSW 19 30 10 16 - - 4.6
02/12:30pm 3.2 -1.5 3.1 99 0.0 W 17 32 9 17 - - 4.6
02/12:00pm 2.8 -2.0 2.7 99 0.0 W 17 37 9 20 - - 4.4
02/11:30am 2.6 -2.8 2.5 99 0.0 SW 20 48 11 26 - - 4.2
02/11:00am 3.8 -1.8 3.7 99 0.0 WSW 22 39 12 21 - - 2.4
02/10:30am 4.5 1.1 4.1 97 0.2 SSW 11 35 6 19 - - 0.6
02/10:00am 8.4 3.7 0.9 59 3.1 W 15 32 8 17 - - 0.0
02/09:30am 8.1 3.3 2.4 67 2.5 WNW 17 37 9 20 - - 0.0
02/09:00am 7.4 3.2 4.0 79 1.5 W 15 35 8 19 - - 0.4
02/08:30am 6.7 3.1 5.2 90 0.7 WNW 13 30 7 16 - - 0.4
02/08:00am 6.9 3.4 5.5 91 0.6 W 13 26 7 14 - - 0.4
02/07:30am 9.2 5.7 3.6 68 2.5 W 11 26 6 14 - - 0.0
02/07:00am 9.4 5.6 3.8 68 2.5 W 13 20 7 11 - - 0.0
02/06:30am 9.5 5.7 3.9 68 2.5 WNW 13 30 7 16 - - 0.0
02/06:00am 9.2 5.8 3.8 69 2.4 WNW 11 19 6 10 - - 0.0
02/05:30am 9.0 5.2 3.8 70 2.3 NW 13 24 7 13 - - 0.0
02/05:00am 8.8 4.9 3.4 69 2.4 NW 13 30 7 16 - - 0.0
02/04:30am 9.4 4.4 3.6 67 2.6 NW 19 43 10 23 - - 0.0
02/04:00am 9.3 4.6 3.3 66 2.7 WNW 17 48 9 26 - - 0.0
02/03:30am 8.7 3.3 2.7 66 2.6 NW 20 41 11 22 - - 0.0
02/03:00am 8.3 3.1 2.5 67 2.5 NW 19 33 10 18 - - 0.0
02/02:30am 8.8 4.4 2.6 65 2.7 NW 15 39 8 21 - - 0.0
02/02:00am 8.3 4.2 2.3 66 2.6 NW 13 35 7 19 - - 0.0
02/01:30am 8.3 4.6 2.1 65 2.7 NW 11 33 6 18 - - 0.0
02/01:00am 8.4 4.3 2.2 65 2.7 NW 13 33 7 18 - - 0.0
02/12:30am 8.0 4.2 2.0 66 2.6 NNW 11 24 6 13 - - 0.0
02/12:00am 8.3 4.2 2.3 66 2.6 NW 13 32 7 17 - - 0.0
 
Date/Time
EST
Temp
°C
App
Temp
°C
Dew
Point
Rel
Hum
%
Delta-T
°C
Wind Press
QNH
hPa
Press
MSL
hPa
Rain
since 9 am
mm
Dir
 
Spd
km/h
Gust
km/h
Spd
kts
Gust
kts
01/11:30pm 8.2 4.4 2.0 65 2.6 NW 11 24 6 13 - - 0.0
01/11:00pm 8.0 4.2 1.8 65 2.6 NW 11 24 6 13 - - 0.0
01/10:30pm 8.0 3.8 1.6 64 2.7 NW 13 26 7 14 - - 0.0
01/10:00pm 7.9 3.3 1.5 64 2.7 NW 15 33 8 18 - - 0.0

Other Formats:

Comma delimited format used in spreadsheet applications
http://www.bom.gov.au/fwo/IDV60801/IDV60801.95913.axf

JavaScript Object Notation format (JSON) in row-major order
http://www.bom.gov.au/fwo/IDV60801/IDV60801.95913.json